.
WxDataArchive / Data Records for 2008-01-26
2008-01-25 January 2008 2008-01-27

Data Records for Saturday, 26 January 2008

Time	Temp	Chill	HIndex	Humid	Dewpt	 Wind 	HiWind	WindDir	Rain 	Barom 
-----	----	-----	------	-----	-----	------	------	-------	-----	----- 
00:00	18.8	18.8	18.8	86	15.3	1	2	202	0.00	30.253 
00:05	18.8	18.8	18.8	87	15.6	0	1	202	0.00	30.248 
00:10	18.8	18.8	18.8	87	15.6	1	2	202	0.00	30.246 
00:15	18.8	18.8	18.8	87	15.6	0	1	202	0.00	30.244 
00:20	18.8	18.8	18.8	87	15.6	1	2	180	0.00	30.240 
00:25	18.8	18.8	18.8	87	15.6	1	2	180	0.00	30.237 
00:30	18.8	18.8	18.8	87	15.6	0	1	180	0.00	30.236 
00:35	18.8	18.8	18.8	88	15.8	0	1	180	0.00	30.236 
00:40	18.8	18.8	18.8	88	15.8	0	1	180	0.00	30.235 
00:45	18.8	18.8	18.8	88	15.8	0	1	180	0.00	30.241 
00:50	18.9	18.9	18.9	88	15.9	0	1	180	0.00	30.243 
00:55	18.9	18.9	18.9	88	15.9	0	1	180	0.00	30.244 
01:00	18.9	18.9	18.9	88	15.9	0	2	158	0.00	30.241 
01:05	18.9	18.9	18.9	88	15.9	0	2	158	0.00	30.228 
01:10	18.9	18.9	18.9	88	15.9	1	3	112	0.00	30.226 
01:15	18.9	18.9	18.9	88	15.9	1	3	112	0.00	30.224 
01:20	18.9	18.9	18.9	87	15.7	1	3	112	0.00	30.221 
01:25	18.8	18.8	18.8	87	15.6	0	2	90	0.00	30.219 
01:30	18.8	18.8	18.8	87	15.6	1	3	112	0.00	30.217 
01:35	18.8	18.8	18.8	87	15.6	0	2	112	0.00	30.213 
01:40	18.8	18.8	18.8	87	15.6	0	1	112	0.00	30.212 
01:45	18.8	18.8	18.8	87	15.6	1	3	112	0.00	30.209 
01:50	18.8	18.8	18.8	87	15.6	1	2	112	0.00	30.207 
01:55	18.8	18.8	18.8	87	15.6	1	2	112	0.00	30.201 
02:00	18.8	18.8	18.8	87	15.6	1	2	112	0.00	30.199 
02:05	18.8	18.8	18.8	87	15.6	1	3	112	0.00	30.199 
02:10	18.8	18.8	18.8	86	15.3	1	3	112	0.00	30.204 
02:15	18.8	18.8	18.8	86	15.3	1	2	112	0.00	30.199 
02:20	18.8	18.8	18.8	86	15.3	1	2	112	0.00	30.197 
02:25	18.9	18.9	18.9	86	15.4	1	3	112	0.00	30.196 
02:30	18.9	18.9	18.9	86	15.4	1	2	112	0.00	30.195 
02:35	18.9	18.9	18.9	86	15.4	1	2	112	0.00	30.194 
02:40	19.1	19.1	19.1	86	15.6	0	1	112	0.00	30.195 
02:45	19.1	19.1	19.1	86	15.6	0	2	112	0.00	30.196 
02:50	19.1	19.1	19.1	86	15.6	1	3	112	0.00	30.196 
02:55	19.2	19.2	19.2	85	15.4	1	3	112	0.00	30.195 
03:00	19.4	19.4	19.4	85	15.6	1	3	112	0.00	30.195 
03:05	19.4	19.4	19.4	85	15.6	0	2	135	0.00	30.196 
03:10	19.5	19.5	19.5	85	15.7	1	2	112	0.00	30.194 
03:15	19.7	19.7	19.7	85	15.9	1	3	112	0.00	30.193 
03:20	19.7	19.7	19.7	85	15.9	1	2	112	0.00	30.194 
03:25	19.7	19.7	19.7	85	15.9	0	2	135	0.00	30.190 
03:30	19.7	19.7	19.7	86	16.2	0	2	135	0.00	30.183 
03:35	19.7	19.7	19.7	86	16.2	0	2	135	0.00	30.181 
03:40	19.7	19.7	19.7	86	16.2	1	4	112	0.00	30.183 
03:45	19.7	19.7	19.7	86	16.2	1	3	135	0.00	30.179 
03:50	19.7	19.7	19.7	87	16.5	1	3	135	0.00	30.176 
03:55	19.7	19.7	19.7	87	16.5	0	1	135	0.00	30.169 
04:00	19.7	19.7	19.7	87	16.5	0	2	90	0.00	30.163 
04:05	19.7	19.7	19.7	87	16.5	1	3	90	0.00	30.159 
04:10	19.7	19.7	19.7	87	16.5	1	4	112	0.00	30.158 
04:15	19.7	19.7	19.7	87	16.5	1	2	112	0.00	30.153 
04:20	19.7	19.7	19.7	87	16.5	1	3	90	0.00	30.147 
04:25	19.7	19.7	19.7	87	16.5	0	1	112	0.00	30.147 
04:30	19.7	19.7	19.7	87	16.5	0	2	135	0.00	30.148 
04:35	19.7	19.7	19.7	87	16.5	0	2	135	0.00	30.149 
04:40	19.7	19.7	19.7	87	16.5	0	2	112	0.00	30.150 
04:45	19.7	19.7	19.7	87	16.5	1	2	112	0.00	30.147 
04:50	19.7	19.7	19.7	87	16.5	0	2	112	0.00	30.146 
04:55	19.7	19.7	19.7	87	16.5	0	2	90	0.00	30.145 
05:00	19.7	19.7	19.7	87	16.5	0	2	112	0.00	30.142 
05:05	19.9	19.9	19.9	87	16.7	0	3	135	0.00	30.142 
05:10	19.9	19.9	19.9	87	16.7	0	2	112	0.00	30.137 
05:15	19.9	19.9	19.9	87	16.7	0	2	90	0.00	30.141 
05:20	19.9	19.9	19.9	87	16.7	0	1	135	0.00	30.139 
05:25	19.9	19.9	19.9	87	16.7	0	2	112	0.00	30.139 
05:30	19.9	19.9	19.9	87	16.7	0	2	135	0.00	30.132 
05:35	19.9	19.9	19.9	87	16.7	0	1	135	0.00	30.130 
05:40	19.9	19.9	19.9	87	16.7	0	2	135	0.00	30.130 
05:45	20.0	20.0	20.0	87	16.8	0	2	135	0.00	30.124 
05:50	20.0	20.0	20.0	87	16.8	0	2	135	0.00	30.119 
05:55	20.0	20.0	20.0	87	16.8	0	2	135	0.00	30.122 
06:00	20.0	20.0	20.0	87	16.8	0	1	135	0.00	30.118 
06:05	20.0	20.0	20.0	87	16.8	0	2	112	0.00	30.116 
06:10	20.2	20.2	20.2	87	17.0	1	4	112	0.00	30.108 
06:15	20.2	20.2	20.2	87	17.0	1	4	112	0.00	30.111 
06:20	20.2	20.2	20.2	87	17.0	1	2	112	0.00	30.115 
06:25	20.2	20.2	20.2	87	17.0	0	2	90	0.00	30.115 
06:30	20.3	20.3	20.3	87	17.1	0	2	135	0.00	30.114 
06:35	20.3	20.3	20.3	87	17.1	0	1	135	0.00	30.116 
06:40	20.3	20.3	20.3	87	17.1	0	2	135	0.00	30.117 
06:45	20.3	20.3	20.3	87	17.1	0	1	135	0.00	30.118 
06:50	20.5	20.5	20.5	87	17.3	0	3	135	0.00	30.115 
06:55	20.5	20.5	20.5	87	17.3	0	1	135	0.00	30.111 
07:00	20.5	20.5	20.5	87	17.3	0	2	112	0.00	30.104 
07:05	20.5	20.5	20.5	87	17.3	0	1	112	0.00	30.107 
07:10	20.5	20.5	20.5	87	17.3	0	1	112	0.00	30.112 
07:15	20.5	20.5	20.5	87	17.3	0	1	112	0.00	30.113 
07:20	20.6	20.6	20.6	87	17.4	0	1	112	0.00	30.115 
07:25	20.6	20.6	20.6	87	17.4	0	1	112	0.00	30.115 
07:30	20.6	20.6	20.6	87	17.4	0	2	112	0.00	30.112 
07:35	20.8	20.8	20.8	87	17.6	0	1	135	0.00	30.103 
07:40	20.8	20.8	20.8	87	17.6	0	1	135	0.00	30.104 
07:45	20.8	20.8	20.8	87	17.6	0	1	135	0.00	30.100 
07:50	21.0	21.0	21.0	87	17.8	0	1	135	0.00	30.095 
07:55	21.0	21.0	21.0	87	17.8	0	1	135	0.00	30.100 
08:00	21.0	21.0	21.0	87	17.8	0	1	135	0.00	30.101 
08:05	21.0	21.0	21.0	87	17.8	0	2	135	0.00	30.093 
08:10	21.1	21.1	21.1	87	17.8	0	2	135	0.00	30.088 
08:15	21.1	21.1	21.1	87	17.8	0	1	135	0.00	30.084 
08:20	21.1	21.1	21.1	87	17.8	0	1	135	0.00	30.081 
08:25	21.1	21.1	21.1	87	17.8	0	1	135	0.00	30.078 
08:30	21.3	21.3	21.3	87	18.0	0	3	135	0.00	30.078 
08:35	21.3	21.3	21.3	87	18.0	0	2	112	0.00	30.080 
08:40	21.4	21.4	21.4	87	18.1	0	2	135	0.00	30.075 
08:45	21.4	21.4	21.4	87	18.1	0	2	135	0.00	30.073 
08:50	21.6	21.6	21.6	86	18.1	1	2	135	0.00	30.081 
08:55	21.8	21.8	21.8	86	18.3	0	1	112	0.00	30.080 
09:00	21.9	21.9	21.9	86	18.4	0	2	112	0.00	30.082 
09:05	22.1	22.1	22.1	85	18.3	0	2	112	0.00	30.086 
09:10	22.2	22.2	22.2	85	18.4	0	1	112	0.00	30.092 
09:15	22.4	22.4	22.4	84	18.3	0	2	135	0.00	30.096 
09:20	22.5	22.5	22.5	84	18.4	0	1	112	0.00	30.099 
09:25	22.5	22.5	22.5	83	18.1	0	1	158	0.00	30.098 
09:30	22.9	22.9	22.9	83	18.5	0	2	180	0.00	30.099 
09:35	23.0	23.0	23.0	82	18.3	0	1	180	0.00	30.098 
09:40	23.2	23.2	23.2	82	18.5	0	1	180	0.00	30.095 
09:45	23.3	23.3	23.3	81	18.3	0	1	180	0.00	30.095 
09:50	23.5	23.5	23.5	81	18.5	0	1	180	0.00	30.092 
09:55	23.6	23.6	23.6	81	18.6	0	1	180	0.00	30.086 
10:00	23.6	23.6	23.6	79	18.1	0	2	135	0.00	30.084 
10:05	23.8	23.8	23.8	79	18.3	0	2	112	0.00	30.082 
10:10	23.9	23.9	23.9	79	18.4	1	3	112	0.00	30.073 
10:15	24.1	24.1	24.1	78	18.3	0	2	90	0.00	30.076 
10:20	24.4	24.4	24.4	77	18.2	1	3	90	0.00	30.073 
10:25	24.5	24.5	24.5	77	18.3	1	2	90	0.00	30.068 
10:30	24.7	24.7	24.7	75	17.9	1	3	270	0.00	30.070 
10:35	24.7	24.7	24.7	74	17.6	1	3	315	0.00	30.068 
10:40	24.8	24.8	24.8	73	17.4	1	3	315	0.00	30.068 
10:45	24.8	24.8	24.8	73	17.4	1	5	270	0.00	30.066 
10:50	25.1	25.1	25.1	73	17.7	1	3	248	0.00	30.070 
10:55	25.3	25.3	25.3	73	17.9	0	2	270	0.00	30.068 
11:00	25.6	25.6	25.6	72	17.8	1	5	270	0.00	30.067 
11:05	25.6	25.6	25.6	71	17.5	1	4	248	0.00	30.064 
11:10	25.8	25.8	25.8	71	17.7	1	5	248	0.00	30.062 
11:15	26.0	26.0	26.0	69	17.2	2	5	248	0.00	30.064 
11:20	26.1	26.1	26.1	69	17.3	1	4	248	0.00	30.063 
11:25	26.3	26.3	26.3	69	17.5	3	6	248	0.00	30.062 
11:30	26.6	26.6	26.6	69	17.8	1	4	248	0.00	30.054 
11:35	27.0	27.0	27.0	68	17.9	2	5	248	0.00	30.048 
11:40	27.2	27.2	27.2	67	17.7	2	6	248	0.00	30.046 
11:45	27.5	27.5	27.5	67	18.0	2	5	248	0.00	30.044 
11:50	27.3	27.3	27.3	66	17.5	3	6	248	0.00	30.042 
11:55	27.5	27.5	27.5	67	18.0	2	4	248	0.00	30.036 
12:00	27.6	27.6	27.6	66	17.8	1	4	248	0.00	30.030 
12:05	27.8	27.8	27.8	66	17.9	1	3	90	0.00	30.025 
12:10	27.5	27.5	27.5	65	17.3	2	6	248	0.00	30.020 
12:15	27.5	27.5	27.5	67	18.0	2	6	248	0.00	30.026 
12:20	27.3	27.3	27.3	66	17.5	2	6	270	0.00	30.027 
12:25	27.2	27.2	27.2	67	17.7	3	7	248	0.00	30.023 
12:30	27.2	27.2	27.2	67	17.7	3	9	248	0.00	30.017 
12:35	27.2	27.2	27.2	68	18.1	2	7	248	0.00	30.015 
12:40	27.3	27.3	27.3	67	17.8	2	5	248	0.00	30.014 
12:45	27.5	27.5	27.5	67	18.0	2	9	270	0.00	30.010 
12:50	27.6	27.6	27.6	67	18.1	2	5	270	0.00	30.008 
12:55	27.8	27.8	27.8	67	18.3	2	7	248	0.00	30.006 
13:00	27.8	27.8	27.8	67	18.3	2	6	248	0.00	30.003 
13:05	27.9	27.9	27.9	67	18.4	2	5	248	0.00	30.003 
13:10	28.2	28.2	28.2	67	18.7	2	6	248	0.00	29.998 
13:15	28.2	28.2	28.2	67	18.7	2	6	248	0.00	29.997 
13:20	28.2	28.2	28.2	67	18.7	3	6	270	0.00	29.988 
13:25	28.5	28.5	28.5	68	19.3	1	4	270	0.00	29.984 
13:30	28.7	28.7	28.7	67	19.2	2	9	248	0.00	29.980 
13:35	28.5	28.5	28.5	67	19.0	3	6	270	0.00	29.981 
13:40	28.4	28.4	28.4	67	18.9	3	8	248	0.00	29.979 
13:45	28.5	28.5	28.5	69	19.6	2	6	248	0.00	29.972 
13:50	28.7	28.7	28.7	68	19.5	1	3	248	0.00	29.978 
13:55	28.7	28.7	28.7	69	19.8	1	4	270	0.00	29.980 
14:00	28.7	28.7	28.7	69	19.8	1	4	248	0.00	29.975 
14:05	28.5	28.5	28.5	69	19.6	1	4	270	0.00	29.975 
14:10	28.5	28.5	28.5	69	19.6	3	7	248	0.01	29.976 
14:15	28.5	28.5	28.5	70	20.0	2	6	248	0.00	29.975 
14:20	28.5	28.5	28.5	70	20.0	2	5	248	0.00	29.971 
14:25	28.4	28.4	28.4	70	19.9	3	6	248	0.00	29.970 
14:30	28.2	28.2	28.2	71	20.0	3	11	248	0.00	29.971 
14:35	28.2	28.2	28.2	71	20.0	3	7	248	0.00	29.969 
14:40	28.4	28.4	28.4	72	20.5	2	4	248	0.00	29.969 
14:45	28.4	28.4	28.4	72	20.5	2	6	248	0.00	29.967 
14:50	28.4	28.4	28.4	72	20.5	3	7	248	0.00	29.967 
14:55	28.5	28.5	28.5	73	21.0	1	3	270	0.00	29.967 
15:00	28.5	28.5	28.5	73	21.0	2	8	248	0.00	29.964 
15:05	28.5	28.5	28.5	73	21.0	1	4	270	0.00	29.964 
15:10	28.5	28.5	28.5	74	21.3	1	6	248	0.00	29.963 
15:15	28.5	28.5	28.5	74	21.3	1	5	225	0.00	29.964 
15:20	28.5	28.5	28.5	74	21.3	1	5	248	0.00	29.967 
15:25	28.5	28.5	28.5	75	21.6	1	6	248	0.00	29.966 
15:30	28.7	28.7	28.7	75	21.8	1	4	292	0.00	29.966 
15:35	28.8	28.8	28.8	75	21.9	1	3	248	0.00	29.966 
15:40	28.8	28.8	28.8	75	21.9	1	5	270	0.00	29.966 
15:45	28.7	28.7	28.7	76	22.1	1	3	248	0.00	29.965 
15:50	28.7	28.7	28.7	76	22.1	1	3	248	0.00	29.965 
15:55	28.7	28.7	28.7	76	22.1	1	3	248	0.00	29.965 
16:00	28.7	28.7	28.7	76	22.1	1	4	248	0.00	29.965 
16:05	28.7	28.7	28.7	76	22.1	2	5	270	0.00	29.964 
16:10	28.8	28.8	28.8	77	22.5	1	9	248	0.00	29.963 
16:15	28.8	28.8	28.8	77	22.5	1	5	248	0.00	29.964 
16:20	28.8	28.8	28.8	77	22.5	1	5	270	0.00	29.964 
16:25	29.0	29.0	29.0	77	22.7	1	6	248	0.00	29.965 
16:30	29.0	29.0	29.0	77	22.7	1	4	225	0.00	29.966 
16:35	29.0	29.0	29.0	78	23.0	1	5	248	0.00	29.965 
16:40	29.0	29.0	29.0	78	23.0	1	5	248	0.00	29.967 
16:45	29.1	29.1	29.1	79	23.4	1	5	292	0.00	29.964 
16:50	29.1	29.1	29.1	79	23.4	1	4	225	0.00	29.965 
16:55	29.1	29.1	29.1	80	23.7	1	3	270	0.00	29.965 
17:00	29.0	29.0	29.0	80	23.6	0	3	248	0.00	29.965 
17:05	29.0	29.0	29.0	81	23.9	1	3	248	0.00	29.964 
17:10	29.0	29.0	29.0	82	24.2	1	5	248	0.00	29.962 
17:15	29.0	29.0	29.0	83	24.5	1	4	248	0.00	29.954 
17:20	29.0	29.0	29.0	83	24.5	1	5	248	0.00	29.951 
17:25	29.0	29.0	29.0	84	24.8	0	2	90	0.00	29.949 
17:30	29.0	29.0	29.0	84	24.8	1	4	270	0.00	29.949 
17:35	29.0	29.0	29.0	84	24.8	1	6	248	0.00	29.949 
17:40	28.8	28.8	28.8	85	24.9	1	4	248	0.00	29.950 
17:45	28.8	28.8	28.8	85	24.9	1	3	270	0.00	29.947 
17:50	28.8	28.8	28.8	85	24.9	1	3	292	0.00	29.944 
17:55	29.0	29.0	29.0	85	25.1	1	7	248	0.00	29.948 
18:00	29.0	29.0	29.0	84	24.8	1	6	248	0.00	29.950 
18:05	29.1	29.1	29.1	84	24.9	2	5	248	0.00	29.949 
18:10	29.3	29.3	29.3	84	25.1	2	6	248	0.00	29.950 
18:15	29.4	29.4	29.4	83	24.9	2	6	248	0.00	29.949 
18:20	29.4	29.4	29.4	83	24.9	2	7	248	0.00	29.951 
18:25	29.5	29.5	29.5	83	25.0	1	5	248	0.00	29.954 
18:30	29.5	29.5	29.5	83	25.0	2	5	270	0.00	29.957 
18:35	29.7	29.7	29.7	83	25.2	2	5	248	0.00	29.957 
18:40	29.7	29.7	29.7	83	25.2	1	5	248	0.00	29.955 
18:45	29.7	29.7	29.7	83	25.2	2	7	270	0.00	29.956 
18:50	29.8	29.8	29.8	82	25.0	3	5	248	0.00	29.956 
18:55	29.8	29.8	29.8	82	25.0	2	5	248	0.00	29.960 
19:00	29.8	29.8	29.8	83	25.3	2	7	248	0.00	29.960 
19:05	30.0	30.0	30.0	83	25.5	1	5	248	0.00	29.962 
19:10	30.0	30.0	30.0	83	25.5	2	5	248	0.00	29.963 
19:15	30.0	30.0	30.0	83	25.5	2	5	248	0.00	29.963 
19:20	30.0	30.0	30.0	83	25.5	2	5	248	0.00	29.963 
19:25	30.1	30.1	30.1	82	25.3	2	4	248	0.00	29.963 
19:30	30.1	30.1	30.1	82	25.3	1	5	248	0.00	29.963 
19:35	30.1	30.1	30.1	82	25.3	1	4	248	0.00	29.964 
19:40	30.1	30.1	30.1	82	25.3	1	2	248	0.00	29.965 
19:45	30.1	30.1	30.1	82	25.3	1	3	248	0.00	29.966 
19:50	30.1	30.1	30.1	82	25.3	1	4	248	0.00	29.965 
19:55	30.1	30.1	30.1	82	25.3	1	6	248	0.00	29.964 
20:00	30.3	30.3	30.3	82	25.5	1	4	248	0.00	29.965 
20:05	30.3	30.3	30.3	82	25.5	1	3	248	0.00	29.963 
20:10	30.3	30.3	30.3	82	25.5	1	4	248	0.00	29.962 
20:15	30.3	30.3	30.3	82	25.5	1	3	248	0.00	29.961 
20:20	30.3	30.3	30.3	82	25.5	1	4	248	0.00	29.961 
20:25	30.3	30.3	30.3	82	25.5	1	3	248	0.00	29.961 
20:30	30.3	30.3	30.3	82	25.5	1	3	248	0.00	29.961 
20:35	30.3	30.3	30.3	82	25.5	1	5	248	0.00	29.961 
20:40	30.4	30.4	30.4	82	25.6	1	3	248	0.00	29.960 
20:45	30.4	30.4	30.4	82	25.6	2	5	248	0.00	29.959 
20:50	30.4	30.4	30.4	82	25.6	1	5	248	0.00	29.960 
20:55	30.4	30.4	30.4	82	25.6	1	3	248	0.00	29.959 
21:00	30.4	30.4	30.4	82	25.6	2	4	248	0.00	29.960 
21:05	30.4	30.4	30.4	82	25.6	1	4	248	0.00	29.956 
21:10	30.4	30.4	30.4	82	25.6	2	5	248	0.00	29.958 
21:15	30.4	30.4	30.4	82	25.6	1	4	248	0.00	29.954 
21:20	30.6	30.6	30.6	82	25.8	1	3	225	0.00	29.960 
21:25	30.6	30.6	30.6	82	25.8	2	6	248	0.00	29.960 
21:30	30.6	30.6	30.6	82	25.8	1	4	248	0.00	29.959 
21:35	30.6	30.6	30.6	82	25.8	1	4	248	0.00	29.960 
21:40	30.6	30.6	30.6	82	25.8	1	2	248	0.00	29.960 
21:45	30.6	30.6	30.6	82	25.8	2	6	248	0.00	29.960 
21:50	30.7	30.7	30.7	81	25.6	2	4	248	0.00	29.960 
21:55	30.7	30.7	30.7	81	25.6	2	5	248	0.00	29.960 
22:00	30.9	30.9	30.9	81	25.8	1	7	248	0.00	29.961 
22:05	30.9	30.9	30.9	81	25.8	1	4	248	0.00	29.958 
22:10	30.9	30.9	30.9	82	26.1	2	5	248	0.00	29.958 
22:15	30.9	30.9	30.9	81	25.8	2	5	248	0.00	29.957 
22:20	30.9	30.9	30.9	81	25.8	2	6	248	0.00	29.957 
22:25	30.7	30.7	30.7	81	25.6	2	4	248	0.00	29.955 
22:30	30.6	30.6	30.6	81	25.5	1	5	248	0.00	29.953 
22:35	30.4	30.4	30.4	82	25.6	2	6	248	0.00	29.952 
22:40	30.3	30.3	30.3	81	25.2	0	2	248	0.00	29.952 
22:45	30.0	30.0	30.0	82	25.2	1	4	248	0.00	29.950 
22:50	29.8	29.8	29.8	82	25.0	1	3	248	0.00	29.948 
22:55	29.8	29.8	29.8	83	25.3	1	4	248	0.00	29.950 
23:00	29.8	29.8	29.8	83	25.3	1	3	248	0.00	29.952 
23:05	29.7	29.7	29.7	83	25.2	1	4	248	0.00	29.950 
23:10	29.7	29.7	29.7	83	25.2	1	3	248	0.00	29.950 
23:15	29.5	29.5	29.5	83	25.0	1	4	248	0.00	29.950 
23:20	29.4	29.4	29.4	83	24.9	1	4	248	0.00	29.949 
23:25	29.3	29.3	29.3	84	25.1	1	4	248	0.00	29.949 
23:30	29.1	29.1	29.1	84	24.9	0	2	248	0.00	29.949 
23:35	28.8	28.8	28.8	84	24.6	1	3	248	0.00	29.947 
23:40	28.7	28.7	28.7	84	24.5	0	2	248	0.00	29.947 
23:45	28.5	28.5	28.5	84	24.3	1	2	248	0.00	29.948 
23:50	28.2	28.2	28.2	84	24.0	0	1	248	0.00	29.948 
23:55	27.9	27.9	27.9	85	24.0	0	1	248	0.00	29.947 

CoCoRaHS
IN-AL-39
A2 Web Hosting
Creative Commons License
GoDaddy
Look for:

loaded 2017-10-19 20:23:03 • last modified 2010-11-18 10:43:29
Privacy PolicyDisclaimer
• wx.awcolley.com is powered by PmWiki v.2002016 •
• all content (unless otherwise noted) © 2017 A W Colley